sensor_id;sensor_type;location;lat;lon;timestamp;pressure;altitude;pressure_sealevel;temperature;humidity
63500;BME280;49654;51.142;14.924;2023-05-02T00:00:26;98953.81;;;13.93;67.69
63500;BME280;49654;51.142;14.924;2023-05-02T00:02:53;98960.22;;;13.90;68.37
63500;BME280;49654;51.142;14.924;2023-05-02T00:05:20;98963.44;;;13.99;69.44
63500;BME280;49654;51.142;14.924;2023-05-02T00:07:48;98959.22;;;13.98;70.17
63500;BME280;49654;51.142;14.924;2023-05-02T00:10:15;98955.41;;;13.94;70.96
63500;BME280;49654;51.142;14.924;2023-05-02T00:12:43;98954.63;;;13.93;72.40
63500;BME280;49654;51.142;14.924;2023-05-02T00:15:10;98875.53;;;13.60;72.27
63500;BME280;49654;51.142;14.924;2023-05-02T00:17:39;98940.94;;;14.11;71.81
63500;BME280;49654;51.142;14.924;2023-05-02T00:20:07;98936.13;;;14.08;71.64
63500;BME280;49654;51.142;14.924;2023-05-02T00:22:35;98928.50;;;14.00;72.69
63500;BME280;49654;51.142;14.924;2023-05-02T00:25:02;98930.91;;;14.01;73.71
63500;BME280;49654;51.142;14.924;2023-05-02T00:27:29;98928.50;;;14.00;74.74
63500;BME280;49654;51.142;14.924;2023-05-02T00:29:59;98922.50;;;13.93;75.39
63500;BME280;49654;51.142;14.924;2023-05-02T00:32:26;98915.84;;;13.90;75.67
63500;BME280;49654;51.142;14.924;2023-05-02T00:34:53;98844.00;;;13.35;76.57
63500;BME280;49654;51.142;14.924;2023-05-02T00:37:20;98934.53;;;13.87;75.98
63500;BME280;49654;51.142;14.924;2023-05-02T00:39:47;98925.31;;;13.58;77.15
63500;BME280;49654;51.142;14.924;2023-05-02T00:42:14;98942.34;;;13.74;78.30
63500;BME280;49654;51.142;14.924;2023-05-02T00:44:41;98938.75;;;13.68;78.15
63500;BME280;49654;51.142;14.924;2023-05-02T00:47:09;98940.16;;;13.71;77.74
63500;BME280;49654;51.142;14.924;2023-05-02T00:49:36;98926.88;;;13.66;76.70
63500;BME280;49654;51.142;14.924;2023-05-02T00:52:03;98936.16;;;13.75;75.68
63500;BME280;49654;51.142;14.924;2023-05-02T00:54:30;98947.78;;;13.86;76.22
63500;BME280;49654;51.142;14.924;2023-05-02T00:56:57;98946.38;;;13.90;75.82
63500;BME280;49654;51.142;14.924;2023-05-02T00:59:25;98906.00;;;13.66;75.73
63500;BME280;49654;51.142;14.924;2023-05-02T01:01:58;98957.81;;;14.02;76.19
63500;BME280;49654;51.142;14.924;2023-05-02T01:04:38;98959.00;;;14.13;75.67
63500;BME280;49654;51.142;14.924;2023-05-02T01:07:17;98949.81;;;13.84;75.47
63500;BME280;49654;51.142;14.924;2023-05-02T01:09:58;98961.44;;;13.94;75.82
63500;BME280;49654;51.142;14.924;2023-05-02T01:12:31;98858.63;;;13.22;76.16
63500;BME280;49654;51.142;14.924;2023-05-02T01:15:05;98972.28;;;13.98;76.27
63500;BME280;49654;51.142;14.924;2023-05-02T01:17:34;98973.09;;;13.98;75.90
63500;BME280;49654;51.142;14.924;2023-05-02T01:20:08;98951.00;;;13.88;75.47
63500;BME280;49654;51.142;14.924;2023-05-02T01:22:38;98964.84;;;14.08;74.84
63500;BME280;49654;51.142;14.924;2023-05-02T01:25:15;98983.91;;;14.09;74.61
63500;BME280;49654;51.142;14.924;2023-05-02T01:27:50;98921.28;;;13.69;75.74
63500;BME280;49654;51.142;14.924;2023-05-02T01:30:21;98936.94;;;13.75;75.96
63500;BME280;49654;51.142;14.924;2023-05-02T01:32:51;98970.69;;;13.90;76.66
63500;BME280;49654;51.142;14.924;2023-05-02T01:35:20;98980.53;;;14.01;76.44
63500;BME280;49654;51.142;14.924;2023-05-02T01:37:48;98978.53;;;13.97;76.17
63500;BME280;49654;51.142;14.924;2023-05-02T01:40:17;98962.44;;;13.87;76.96
63500;BME280;49654;51.142;14.924;2023-05-02T01:42:46;98973.31;;;13.97;76.51
63500;BME280;49654;51.142;14.924;2023-05-02T01:45:15;98973.50;;;14.02;76.48
63500;BME280;49654;51.142;14.924;2023-05-02T01:47:44;98977.72;;;14.10;76.36
63500;BME280;49654;51.142;14.924;2023-05-02T01:50:13;98985.13;;;14.13;75.34
63500;BME280;49654;51.142;14.924;2023-05-02T01:52:43;98960.25;;;13.97;74.74
63500;BME280;49654;51.142;14.924;2023-05-02T01:55:13;98982.13;;;14.09;74.17
63500;BME280;49654;51.142;14.924;2023-05-02T01:57:43;98932.13;;;13.79;73.00
63500;BME280;49654;51.142;14.924;2023-05-02T02:00:13;98902.41;;;13.60;73.07
63500;BME280;49654;51.142;14.924;2023-05-02T02:02:44;98952.81;;;13.94;73.08
63500;BME280;49654;51.142;14.924;2023-05-02T02:05:12;98981.13;;;13.97;73.46
63500;BME280;49654;51.142;14.924;2023-05-02T02:07:40;98978.31;;;13.98;73.59
63500;BME280;49654;51.142;14.924;2023-05-02T02:10:09;98974.28;;;13.83;72.56
63500;BME280;49654;51.142;14.924;2023-05-02T02:12:40;98986.13;;;13.78;71.54
63500;BME280;49654;51.142;14.924;2023-05-02T02:15:15;98941.69;;;13.25;71.24
63500;BME280;49654;51.142;14.924;2023-05-02T02:17:48;98937.13;;;13.47;72.59
63500;BME280;49654;51.142;14.924;2023-05-02T02:20:20;98957.03;;;13.75;72.07
63500;BME280;49654;51.142;14.924;2023-05-02T02:22:48;98920.88;;;13.45;72.39
63500;BME280;49654;51.142;14.924;2023-05-02T02:25:17;98981.72;;;13.86;72.21
63500;BME280;49654;51.142;14.924;2023-05-02T02:27:44;98987.94;;;13.78;71.82
63500;BME280;49654;51.142;14.924;2023-05-02T02:30:11;98986.13;;;13.72;72.26
63500;BME280;49654;51.142;14.924;2023-05-02T02:32:38;98986.72;;;13.81;72.65
63500;BME280;49654;51.142;14.924;2023-05-02T02:35:07;98987.16;;;13.84;73.07
63500;BME280;49654;51.142;14.924;2023-05-02T02:37:38;98991.94;;;13.87;72.72
63500;BME280;49654;51.142;14.924;2023-05-02T02:40:11;98992.53;;;13.83;72.40
63500;BME280;49654;51.142;14.924;2023-05-02T02:42:44;98995.34;;;13.74;72.84
63500;BME280;49654;51.142;14.924;2023-05-02T02:45:25;98975.25;;;13.55;73.69
63500;BME280;49654;51.142;14.924;2023-05-02T02:48:03;98999.97;;;13.72;73.98
63500;BME280;49654;51.142;14.924;2023-05-02T02:50:36;98997.34;;;13.66;74.27
63500;BME280;49654;51.142;14.924;2023-05-02T02:53:04;98976.63;;;13.44;74.74
63500;BME280;49654;51.142;14.924;2023-05-02T02:55:37;98974.00;;;13.31;75.27
63500;BME280;49654;51.142;14.924;2023-05-02T02:58:14;99007.81;;;13.72;75.63
63500;BME280;49654;51.142;14.924;2023-05-02T03:00:43;98916.78;;;13.23;74.87
63500;BME280;49654;51.142;14.924;2023-05-02T03:03:13;99003.59;;;13.71;74.49
63500;BME280;49654;51.142;14.924;2023-05-02T03:05:42;98987.69;;;13.46;74.54
63500;BME280;49654;51.142;14.924;2023-05-02T03:08:09;98989.50;;;13.46;74.47
63500;BME280;49654;51.142;14.924;2023-05-02T03:10:36;99016.63;;;13.58;73.10
63500;BME280;49654;51.142;14.924;2023-05-02T03:13:03;99018.81;;;13.61;72.55
63500;BME280;49654;51.142;14.924;2023-05-02T03:18:23;99018.22;;;13.59;70.77
63500;BME280;49654;51.142;14.924;2023-05-02T03:20:52;99030.88;;;13.62;71.03
63500;BME280;49654;51.142;14.924;2023-05-02T03:23:18;99025.25;;;13.65;71.58
63500;BME280;49654;51.142;14.924;2023-05-02T03:25:45;99011.41;;;13.58;71.18
63500;BME280;49654;51.142;14.924;2023-05-02T03:28:12;99028.84;;;13.64;70.05
63500;BME280;49654;51.142;14.924;2023-05-02T03:30:39;98982.22;;;13.35;70.21
63500;BME280;49654;51.142;14.924;2023-05-02T03:33:06;99030.47;;;13.65;69.69
63500;BME280;49654;51.142;14.924;2023-05-02T03:35:33;99039.91;;;13.66;70.05
63500;BME280;49654;51.142;14.924;2023-05-02T03:38:01;99039.72;;;13.74;69.77
63500;BME280;49654;51.142;14.924;2023-05-02T03:40:28;99033.31;;;13.70;69.79
63500;BME280;49654;51.142;14.924;2023-05-02T03:42:55;99019.59;;;13.55;70.41
63500;BME280;49654;51.142;14.924;2023-05-02T03:45:22;99036.31;;;13.67;70.39
63500;BME280;49654;51.142;14.924;2023-05-02T03:47:49;99042.50;;;13.60;68.95
63500;BME280;49654;51.142;14.924;2023-05-02T03:50:16;99043.28;;;13.53;68.82
63500;BME280;49654;51.142;14.924;2023-05-02T03:52:43;99026.78;;;13.40;69.43
63500;BME280;49654;51.142;14.924;2023-05-02T03:55:11;99007.50;;;13.34;70.39
63500;BME280;49654;51.142;14.924;2023-05-02T03:57:38;99041.09;;;13.64;71.36
63500;BME280;49654;51.142;14.924;2023-05-02T04:00:06;99026.63;;;13.55;71.31
63500;BME280;49654;51.142;14.924;2023-05-02T04:02:33;99057.31;;;13.52;69.95
63500;BME280;49654;51.142;14.924;2023-05-02T04:05:01;99060.97;;;13.65;68.80
63500;BME280;49654;51.142;14.924;2023-05-02T04:07:28;99015.91;;;13.30;68.27
63500;BME280;49654;51.142;14.924;2023-05-02T04:09:55;99060.34;;;13.49;67.23
63500;BME280;49654;51.142;14.924;2023-05-02T04:12:23;99068.59;;;13.60;67.70
63500;BME280;49654;51.142;14.924;2023-05-02T04:14:50;99072.63;;;13.62;67.87
63500;BME280;49654;51.142;14.924;2023-05-02T04:17:17;98999.81;;;13.19;67.12
63500;BME280;49654;51.142;14.924;2023-05-02T04:19:44;99055.97;;;13.63;66.52
63500;BME280;49654;51.142;14.924;2023-05-02T04:22:10;99051.50;;;13.57;65.74
63500;BME280;49654;51.142;14.924;2023-05-02T04:24:37;99075.25;;;13.75;66.91
63500;BME280;49654;51.142;14.924;2023-05-02T04:27:04;99080.06;;;13.78;67.11
63500;BME280;49654;51.142;14.924;2023-05-02T04:29:33;99086.88;;;13.73;66.99
63500;BME280;49654;51.142;14.924;2023-05-02T04:32:00;99085.88;;;13.74;66.00
63500;BME280;49654;51.142;14.924;2023-05-02T04:34:27;99055.75;;;13.65;65.64
63500;BME280;49654;51.142;14.924;2023-05-02T04:36:55;99070.84;;;13.83;65.36
63500;BME280;49654;51.142;14.924;2023-05-02T04:39:22;99097.41;;;14.06;65.62
63500;BME280;49654;51.142;14.924;2023-05-02T04:41:48;99070.25;;;13.87;65.79
63500;BME280;49654;51.142;14.924;2023-05-02T04:44:15;99091.13;;;13.87;66.40
63500;BME280;49654;51.142;14.924;2023-05-02T04:46:44;99113.06;;;13.99;67.17
63500;BME280;49654;51.142;14.924;2023-05-02T04:49:11;99101.63;;;14.07;66.22
63500;BME280;49654;51.142;14.924;2023-05-02T04:51:38;98983.44;;;13.32;65.44
63500;BME280;49654;51.142;14.924;2023-05-02T04:54:05;99069.03;;;13.76;65.73
63500;BME280;49654;51.142;14.924;2023-05-02T04:56:32;99081.28;;;13.83;64.89
63500;BME280;49654;51.142;14.924;2023-05-02T04:58:59;99123.31;;;14.01;65.37
63500;BME280;49654;51.142;14.924;2023-05-02T05:01:26;99133.72;;;13.94;65.75
63500;BME280;49654;51.142;14.924;2023-05-02T05:03:55;99124.88;;;13.89;64.86
63500;BME280;49654;51.142;14.924;2023-05-02T05:06:22;99117.09;;;14.09;65.03
63500;BME280;49654;51.142;14.924;2023-05-02T05:08:49;99133.38;;;14.17;65.12
63500;BME280;49654;51.142;14.924;2023-05-02T05:11:16;99136.56;;;14.13;64.56
63500;BME280;49654;51.142;14.924;2023-05-02T05:13:43;99099.97;;;13.86;65.00
63500;BME280;49654;51.142;14.924;2023-05-02T05:16:10;99145.44;;;14.18;65.20
63500;BME280;49654;51.142;14.924;2023-05-02T05:18:36;99132.13;;;14.00;64.55
63500;BME280;49654;51.142;14.924;2023-05-02T05:21:07;99148.69;;;14.27;64.83
63500;BME280;49654;51.142;14.924;2023-05-02T05:23:35;99156.13;;;14.37;64.59
63500;BME280;49654;51.142;14.924;2023-05-02T05:26:08;99155.72;;;14.46;64.70
63500;BME280;49654;51.142;14.924;2023-05-02T05:28:37;99164.78;;;14.44;64.50
63500;BME280;49654;51.142;14.924;2023-05-02T05:31:04;99095.56;;;13.87;64.08
63500;BME280;49654;51.142;14.924;2023-05-02T05:33:32;99165.97;;;14.35;64.13
63500;BME280;49654;51.142;14.924;2023-05-02T05:36:03;99120.28;;;14.04;62.68
63500;BME280;49654;51.142;14.924;2023-05-02T05:38:32;99172.38;;;14.39;62.95
63500;BME280;49654;51.142;14.924;2023-05-02T05:40:59;99170.81;;;14.44;62.50
63500;BME280;49654;51.142;14.924;2023-05-02T05:43:26;99176.59;;;14.33;62.95
63500;BME280;49654;51.142;14.924;2023-05-02T05:45:54;99034.13;;;13.23;63.02
63500;BME280;49654;51.142;14.924;2023-05-02T05:48:22;99102.75;;;13.71;63.19
63500;BME280;49654;51.142;14.924;2023-05-02T05:50:49;99183.13;;;13.96;63.32
63500;BME280;49654;51.142;14.924;2023-05-02T05:53:17;99180.41;;;14.24;63.30
63500;BME280;49654;51.142;14.924;2023-05-02T05:55:46;99151.00;;;13.95;64.28
63500;BME280;49654;51.142;14.924;2023-05-02T05:58:13;99166.91;;;14.07;64.05
63500;BME280;49654;51.142;14.924;2023-05-02T06:00:40;99197.88;;;14.30;63.59
63500;BME280;49654;51.142;14.924;2023-05-02T06:03:07;99155.53;;;14.35;64.05
63500;BME280;49654;51.142;14.924;2023-05-02T06:05:34;99178.91;;;14.69;60.99
63500;BME280;49654;51.142;14.924;2023-05-02T06:08:01;99210.25;;;14.76;62.51
63500;BME280;49654;51.142;14.924;2023-05-02T06:10:29;99206.47;;;14.92;62.12
63500;BME280;49654;51.142;14.924;2023-05-02T06:12:58;99212.50;;;14.99;62.41
63500;BME280;49654;51.142;14.924;2023-05-02T06:15:25;99216.91;;;15.05;60.95
63500;BME280;49654;51.142;14.924;2023-05-02T06:17:52;99140.69;;;14.55;62.02
63500;BME280;49654;51.142;14.924;2023-05-02T06:20:19;99217.31;;;15.09;60.20
63500;BME280;49654;51.142;14.924;2023-05-02T06:22:46;99222.72;;;15.07;59.76
63500;BME280;49654;51.142;14.924;2023-05-02T06:25:15;99137.22;;;14.41;60.84
63500;BME280;49654;51.142;14.924;2023-05-02T06:27:42;99229.97;;;15.18;60.25
63500;BME280;49654;51.142;14.924;2023-05-02T06:30:11;99236.41;;;15.29;60.74
63500;BME280;49654;51.142;14.924;2023-05-02T06:32:38;99237.41;;;15.35;60.71
63500;BME280;49654;51.142;14.924;2023-05-02T06:35:07;99101.69;;;14.73;59.02
63500;BME280;49654;51.142;14.924;2023-05-02T06:37:34;99244.63;;;15.72;58.37
63500;BME280;49654;51.142;14.924;2023-05-02T06:40:02;99254.25;;;15.85;57.21
63500;BME280;49654;51.142;14.924;2023-05-02T06:42:30;99256.31;;;16.28;57.29
63500;BME280;49654;51.142;14.924;2023-05-02T06:44:57;99162.34;;;15.42;57.81
63500;BME280;49654;51.142;14.924;2023-05-02T06:47:25;99257.13;;;16.22;57.72
63500;BME280;49654;51.142;14.924;2023-05-02T06:49:52;99272.72;;;16.10;57.42
63500;BME280;49654;51.142;14.924;2023-05-02T06:52:19;99269.75;;;16.38;57.82
63500;BME280;49654;51.142;14.924;2023-05-02T06:54:46;99267.75;;;16.34;57.78
63500;BME280;49654;51.142;14.924;2023-05-02T06:57:13;99262.19;;;16.55;57.57
63500;BME280;49654;51.142;14.924;2023-05-02T06:59:41;99272.94;;;16.85;56.84
63500;BME280;49654;51.142;14.924;2023-05-02T07:02:08;99282.69;;;16.33;56.87
63500;BME280;49654;51.142;14.924;2023-05-02T07:04:36;99286.59;;;16.11;56.54
63500;BME280;49654;51.142;14.924;2023-05-02T07:07:03;99286.16;;;16.20;57.49
63500;BME280;49654;51.142;14.924;2023-05-02T07:09:30;99231.66;;;15.97;57.34
63500;BME280;49654;51.142;14.924;2023-05-02T07:11:57;99229.22;;;16.02;57.42
63500;BME280;49654;51.142;14.924;2023-05-02T07:14:24;99290.00;;;16.56;57.12
63500;BME280;49654;51.142;14.924;2023-05-02T07:16:52;99300.47;;;16.63;56.23
63500;BME280;49654;51.142;14.924;2023-05-02T07:19:19;99226.16;;;16.06;55.05
63500;BME280;49654;51.142;14.924;2023-05-02T07:21:47;99304.78;;;16.89;54.96
63500;BME280;49654;51.142;14.924;2023-05-02T07:24:14;99300.31;;;16.96;54.88
63500;BME280;49654;51.142;14.924;2023-05-02T07:26:41;99306.81;;;16.87;54.63
63500;BME280;49654;51.142;14.924;2023-05-02T07:29:08;99310.91;;;16.76;54.39
63500;BME280;49654;51.142;14.924;2023-05-02T07:31:35;99304.88;;;16.69;54.09
63500;BME280;49654;51.142;14.924;2023-05-02T07:34:03;99302.81;;;16.84;54.92
63500;BME280;49654;51.142;14.924;2023-05-02T07:36:29;99312.09;;;17.37;54.48
63500;BME280;49654;51.142;14.924;2023-05-02T07:38:58;99266.69;;;17.36;54.05
63500;BME280;49654;51.142;14.924;2023-05-02T07:41:25;99313.03;;;17.74;52.51
63500;BME280;49654;51.142;14.924;2023-05-02T07:43:52;99324.34;;;17.93;50.62
63500;BME280;49654;51.142;14.924;2023-05-02T07:46:19;99326.50;;;17.52;51.71
63500;BME280;49654;51.142;14.924;2023-05-02T07:48:46;99308.03;;;17.41;52.14
63500;BME280;49654;51.142;14.924;2023-05-02T07:51:13;99330.38;;;17.50;51.90
63500;BME280;49654;51.142;14.924;2023-05-02T07:53:40;99328.94;;;17.79;52.20
63500;BME280;49654;51.142;14.924;2023-05-02T07:56:08;99317.88;;;17.20;51.09
63500;BME280;49654;51.142;14.924;2023-05-02T07:58:37;99346.59;;;17.40;52.96
63500;BME280;49654;51.142;14.924;2023-05-02T08:01:04;99349.63;;;17.44;54.09
63500;BME280;49654;51.142;14.924;2023-05-02T08:03:31;99365.00;;;17.90;51.12
63500;BME280;49654;51.142;14.924;2023-05-02T08:05:58;99361.72;;;17.70;51.44
63500;BME280;49654;51.142;14.924;2023-05-02T08:08:26;99369.00;;;17.93;50.52
63500;BME280;49654;51.142;14.924;2023-05-02T08:10:53;99375.75;;;18.25;50.50
63500;BME280;49654;51.142;14.924;2023-05-02T08:13:21;99375.66;;;18.50;48.34
63500;BME280;49654;51.142;14.924;2023-05-02T08:15:48;99381.75;;;17.89;50.20
63500;BME280;49654;51.142;14.924;2023-05-02T08:18:15;99390.84;;;18.12;48.32
63500;BME280;49654;51.142;14.924;2023-05-02T08:20:42;99399.47;;;17.75;49.96
63500;BME280;49654;51.142;14.924;2023-05-02T08:23:09;99402.28;;;17.49;50.93
63500;BME280;49654;51.142;14.924;2023-05-02T08:25:36;99379.16;;;17.33;51.39
63500;BME280;49654;51.142;14.924;2023-05-02T08:28:03;99402.06;;;17.50;50.25
63500;BME280;49654;51.142;14.924;2023-05-02T08:30:31;99405.44;;;18.08;51.27
63500;BME280;49654;51.142;14.924;2023-05-02T08:32:58;99395.78;;;18.01;47.76
63500;BME280;49654;51.142;14.924;2023-05-02T08:35:27;99407.94;;;18.21;49.38
63500;BME280;49654;51.142;14.924;2023-05-02T08:37:54;99413.16;;;18.46;47.70
63500;BME280;49654;51.142;14.924;2023-05-02T08:40:21;99420.94;;;18.34;49.85
63500;BME280;49654;51.142;14.924;2023-05-02T08:42:50;99415.59;;;18.04;50.01
63500;BME280;49654;51.142;14.924;2023-05-02T08:45:18;99428.97;;;18.21;49.32
63500;BME280;49654;51.142;14.924;2023-05-02T08:47:48;99422.25;;;18.62;49.30
63500;BME280;49654;51.142;14.924;2023-05-02T08:50:16;99398.03;;;17.98;48.73
63500;BME280;49654;51.142;14.924;2023-05-02T08:52:44;99441.34;;;17.95;50.09
63500;BME280;49654;51.142;14.924;2023-05-02T08:55:12;99440.69;;;18.00;50.32
63500;BME280;49654;51.142;14.924;2023-05-02T08:57:39;99442.38;;;17.63;50.52
63500;BME280;49654;51.142;14.924;2023-05-02T09:00:08;99442.59;;;18.11;51.16
63500;BME280;49654;51.142;14.924;2023-05-02T09:02:46;99432.44;;;18.15;50.09
63500;BME280;49654;51.142;14.924;2023-05-02T09:05:19;99447.31;;;18.83;48.24
63500;BME280;49654;51.142;14.924;2023-05-02T09:07:50;99440.47;;;18.82;46.90
63500;BME280;49654;51.142;14.924;2023-05-02T09:10:17;99453.59;;;18.63;47.36
63500;BME280;49654;51.142;14.924;2023-05-02T09:12:44;99458.94;;;18.93;46.69
63500;BME280;49654;51.142;14.924;2023-05-02T09:15:13;99449.78;;;19.14;46.59
63500;BME280;49654;51.142;14.924;2023-05-02T09:17:41;99451.31;;;19.64;44.59
63500;BME280;49654;51.142;14.924;2023-05-02T09:20:11;99471.34;;;19.65;44.68
63500;BME280;49654;51.142;14.924;2023-05-02T09:22:46;99470.34;;;19.77;43.34
63500;BME280;49654;51.142;14.924;2023-05-02T09:25:14;99459.13;;;19.94;40.73
63500;BME280;49654;51.142;14.924;2023-05-02T09:27:51;99447.88;;;19.33;42.63
63500;BME280;49654;51.142;14.924;2023-05-02T09:30:20;99475.19;;;19.20;43.46
63500;BME280;49654;51.142;14.924;2023-05-02T09:32:48;99486.66;;;19.56;44.57
63500;BME280;49654;51.142;14.924;2023-05-02T09:35:17;99481.69;;;19.78;43.42
63500;BME280;49654;51.142;14.924;2023-05-02T09:37:54;99480.72;;;20.26;42.96
63500;BME280;49654;51.142;14.924;2023-05-02T09:40:22;99456.53;;;20.93;41.42
63500;BME280;49654;51.142;14.924;2023-05-02T09:42:49;99482.34;;;22.27;38.61
63500;BME280;49654;51.142;14.924;2023-05-02T09:45:20;99473.69;;;22.32;38.06
63500;BME280;49654;51.142;14.924;2023-05-02T09:47:47;99486.72;;;22.05;38.61
63500;BME280;49654;51.142;14.924;2023-05-02T09:50:34;99494.84;;;22.32;38.24
63500;BME280;49654;51.142;14.924;2023-05-02T09:53:06;99507.88;;;21.54;38.82
63500;BME280;49654;51.142;14.924;2023-05-02T09:55:34;99502.22;;;21.34;39.55
63500;BME280;49654;51.142;14.924;2023-05-02T09:58:01;99513.59;;;21.22;37.95
63500;BME280;49654;51.142;14.924;2023-05-02T10:00:42;99511.88;;;20.41;40.29
63500;BME280;49654;51.142;14.924;2023-05-02T10:03:09;99509.25;;;20.17;41.66
63500;BME280;49654;51.142;14.924;2023-05-02T10:05:37;99512.22;;;20.09;43.67
63500;BME280;49654;51.142;14.924;2023-05-02T10:08:07;99507.41;;;20.06;44.42
63500;BME280;49654;51.142;14.924;2023-05-02T10:10:37;99514.50;;;20.29;44.12
63500;BME280;49654;51.142;14.924;2023-05-02T10:13:09;99436.34;;;20.11;44.10
63500;BME280;49654;51.142;14.924;2023-05-02T10:15:42;99517.94;;;21.29;40.78
63500;BME280;49654;51.142;14.924;2023-05-02T10:18:12;99527.69;;;20.99;41.96
63500;BME280;49654;51.142;14.924;2023-05-02T10:20:43;99529.66;;;20.10;43.22
63500;BME280;49654;51.142;14.924;2023-05-02T10:23:11;99533.94;;;19.51;45.82
63500;BME280;49654;51.142;14.924;2023-05-02T10:25:40;99541.81;;;19.21;47.21
63500;BME280;49654;51.142;14.924;2023-05-02T10:28:08;99547.84;;;19.40;46.60
63500;BME280;49654;51.142;14.924;2023-05-02T10:30:36;99541.19;;;18.89;47.88
63500;BME280;49654;51.142;14.924;2023-05-02T10:33:03;99516.03;;;18.93;48.64
63500;BME280;49654;51.142;14.924;2023-05-02T10:35:31;99553.25;;;19.15;48.24
63500;BME280;49654;51.142;14.924;2023-05-02T10:37:59;99550.22;;;18.74;49.47
63500;BME280;49654;51.142;14.924;2023-05-02T10:40:28;99556.22;;;19.18;47.22
63500;BME280;49654;51.142;14.924;2023-05-02T10:42:56;99562.13;;;19.14;48.39
63500;BME280;49654;51.142;14.924;2023-05-02T10:45:30;99566.66;;;19.62;45.56
63500;BME280;49654;51.142;14.924;2023-05-02T10:48:17;99571.81;;;19.01;47.34
63500;BME280;49654;51.142;14.924;2023-05-02T10:50:45;99568.59;;;18.56;48.46
63500;BME280;49654;51.142;14.924;2023-05-02T10:53:37;99572.03;;;17.75;50.79
63500;BME280;49654;51.142;14.924;2023-05-02T10:56:09;99535.91;;;17.19;51.71
63500;BME280;49654;51.142;14.924;2023-05-02T10:58:37;99561.69;;;17.35;51.57
63500;BME280;49654;51.142;14.924;2023-05-02T11:01:31;99578.59;;;17.46;50.95
63500;BME280;49654;51.142;14.924;2023-05-02T11:03:59;99575.34;;;17.50;50.67
63500;BME280;49654;51.142;14.924;2023-05-02T11:06:28;99580.66;;;17.37;51.99
63500;BME280;49654;51.142;14.924;2023-05-02T11:09:29;99579.53;;;17.65;52.14
63500;BME280;49654;51.142;14.924;2023-05-02T11:11:58;99577.28;;;18.32;49.41
63500;BME280;49654;51.142;14.924;2023-05-02T11:14:45;99576.78;;;18.41;48.27
63500;BME280;49654;51.142;14.924;2023-05-02T11:17:15;99578.03;;;18.64;48.38
63500;BME280;49654;51.142;14.924;2023-05-02T11:22:56;99577.66;;;18.85;46.86
63500;BME280;49654;51.142;14.924;2023-05-02T11:25:34;99583.88;;;18.41;47.60
63500;BME280;49654;51.142;14.924;2023-05-02T11:28:06;99582.38;;;18.51;46.47
63500;BME280;49654;51.142;14.924;2023-05-02T11:30:39;99583.06;;;18.90;44.77
63500;BME280;49654;51.142;14.924;2023-05-02T11:33:16;99587.09;;;19.11;45.05
63500;BME280;49654;51.142;14.924;2023-05-02T11:35:46;99586.13;;;19.24;43.73
63500;BME280;49654;51.142;14.924;2023-05-02T11:38:15;99596.00;;;19.29;44.07
63500;BME280;49654;51.142;14.924;2023-05-02T11:40:56;99551.06;;;19.42;43.21
63500;BME280;49654;51.142;14.924;2023-05-02T11:43:25;99595.34;;;19.70;43.13
63500;BME280;49654;51.142;14.924;2023-05-02T11:45:53;99547.34;;;19.49;43.08
63500;BME280;49654;51.142;14.924;2023-05-02T11:48:22;99578.13;;;19.67;43.48
63500;BME280;49654;51.142;14.924;2023-05-02T11:50:53;99594.16;;;19.47;42.58
63500;BME280;49654;51.142;14.924;2023-05-02T11:53:22;99574.00;;;19.23;44.64
63500;BME280;49654;51.142;14.924;2023-05-02T11:55:51;99552.47;;;19.26;44.38
63500;BME280;49654;51.142;14.924;2023-05-02T11:58:20;99589.91;;;18.73;45.36
63500;BME280;49654;51.142;14.924;2023-05-02T12:00:50;99554.19;;;18.84;45.96
63500;BME280;49654;51.142;14.924;2023-05-02T12:03:26;99573.56;;;19.74;45.10
63500;BME280;49654;51.142;14.924;2023-05-02T12:05:54;99554.94;;;19.88;43.50
63500;BME280;49654;51.142;14.924;2023-05-02T12:08:22;99554.75;;;19.41;42.90
63500;BME280;49654;51.142;14.924;2023-05-02T12:10:51;99562.44;;;18.87;43.93
63500;BME280;49654;51.142;14.924;2023-05-02T12:13:20;99585.97;;;19.86;45.26
63500;BME280;49654;51.142;14.924;2023-05-02T12:15:49;99609.47;;;20.41;42.91
63500;BME280;49654;51.142;14.924;2023-05-02T12:18:18;99466.09;;;19.05;44.18
63500;BME280;49654;51.142;14.924;2023-05-02T12:20:48;99486.53;;;19.51;42.12
63500;BME280;49654;51.142;14.924;2023-05-02T12:23:16;99588.88;;;20.08;43.11
63500;BME280;49654;51.142;14.924;2023-05-02T12:25:44;99540.41;;;19.18;43.62
63500;BME280;49654;51.142;14.924;2023-05-02T12:28:11;99578.31;;;19.36;44.48
63500;BME280;49654;51.142;14.924;2023-05-02T12:30:38;99556.16;;;18.88;46.28
63500;BME280;49654;51.142;14.924;2023-05-02T12:33:07;99598.34;;;19.18;46.98
63500;BME280;49654;51.142;14.924;2023-05-02T12:35:34;99500.31;;;18.24;47.83
63500;BME280;49654;51.142;14.924;2023-05-02T12:38:10;99486.72;;;18.27;46.23
63500;BME280;49654;51.142;14.924;2023-05-02T12:40:37;99529.78;;;18.95;45.88
63500;BME280;49654;51.142;14.924;2023-05-02T12:43:05;99581.06;;;20.90;43.27
63500;BME280;49654;51.142;14.924;2023-05-02T12:45:35;99543.19;;;22.27;39.03
63500;BME280;49654;51.142;14.924;2023-05-02T12:48:18;99578.56;;;24.51;36.05
63500;BME280;49654;51.142;14.924;2023-05-02T12:50:45;99540.91;;;24.21;36.86
63500;BME280;49654;51.142;14.924;2023-05-02T12:53:12;99580.97;;;26.23;33.35
63500;BME280;49654;51.142;14.924;2023-05-02T12:55:39;99561.66;;;25.14;33.36
63500;BME280;49654;51.142;14.924;2023-05-02T12:58:08;99570.59;;;23.15;35.58
63500;BME280;49654;51.142;14.924;2023-05-02T13:00:36;99593.09;;;22.74;38.65
63500;BME280;49654;51.142;14.924;2023-05-02T13:03:04;99545.50;;;23.45;35.42
63500;BME280;49654;51.142;14.924;2023-05-02T13:05:33;99594.06;;;22.68;35.70